地図

経路データ

SID SEASON NUMBER BASIN SUBBASIN NAME ISO_TIME NATURE LAT LON WMO_WIND WMO_PRES WMO_AGENCY TRACK_TYPE DIST2LAND LANDFALL IFLAG USA_AGENCY USA_ATCF_ID USA_LAT USA_LON USA_RECORD USA_STATUS USA_WIND USA_PRES USA_SSHS USA_R34_NE USA_R34_SE USA_R34_SW USA_R34_NW USA_R50_NE USA_R50_SE USA_R50_SW USA_R50_NW USA_R64_NE USA_R64_SE USA_R64_SW USA_R64_NW USA_POCI USA_ROCI USA_RMW USA_EYE TOKYO_LAT TOKYO_LON TOKYO_GRADE TOKYO_WIND TOKYO_PRES TOKYO_R50_DIR TOKYO_R50_LONG TOKYO_R50_SHORT TOKYO_R30_DIR TOKYO_R30_LONG TOKYO_R30_SHORT TOKYO_LAND CMA_LAT CMA_LON CMA_CAT CMA_WIND CMA_PRES HKO_LAT HKO_LON HKO_CAT HKO_WIND HKO_PRES NEWDELHI_LAT NEWDELHI_LON NEWDELHI_GRADE NEWDELHI_WIND NEWDELHI_PRES NEWDELHI_CI NEWDELHI_DP NEWDELHI_POCI REUNION_LAT REUNION_LON REUNION_TYPE REUNION_WIND REUNION_PRES REUNION_TNUM REUNION_CI REUNION_RMW REUNION_R34_NE REUNION_R34_SE REUNION_R34_SW REUNION_R34_NW REUNION_R50_NE REUNION_R50_SE REUNION_R50_SW REUNION_R50_NW REUNION_R64_NE REUNION_R64_SE REUNION_R64_SW REUNION_R64_NW BOM_LAT BOM_LON BOM_TYPE BOM_WIND BOM_PRES BOM_TNUM BOM_CI BOM_RMW BOM_R34_NE BOM_R34_SE BOM_R34_SW BOM_R34_NW BOM_R50_NE BOM_R50_SE BOM_R50_SW BOM_R50_NW BOM_R64_NE BOM_R64_SE BOM_R64_SW BOM_R64_NW BOM_ROCI BOM_POCI BOM_EYE BOM_POS_METHOD BOM_PRES_METHOD NADI_LAT NADI_LON NADI_CAT NADI_WIND NADI_PRES WELLINGTON_LAT WELLINGTON_LON WELLINGTON_WIND WELLINGTON_PRES DS824_LAT DS824_LON DS824_STAGE DS824_WIND DS824_PRES TD9636_LAT TD9636_LON TD9636_STAGE TD9636_WIND TD9636_PRES TD9635_LAT TD9635_LON TD9635_WIND TD9635_PRES TD9635_ROCI NEUMANN_LAT NEUMANN_LON NEUMANN_CLASS NEUMANN_WIND NEUMANN_PRES MLC_LAT MLC_LON MLC_CLASS MLC_WIND MLC_PRES USA_GUST BOM_GUST BOM_GUST_PER REUNION_GUST REUNION_GUST_PER USA_SEAHGT USA_SEARAD_NE USA_SEARAD_SE USA_SEARAD_SW USA_SEARAD_NW STORM_SPEED STORM_DIR
1996190S07096 1997 50 SI WA LINDSAY 1996-07-08 06:00:00 TS -7.00000 95.5000 main 703 703 O___________O_ jtwc_sh SH011997 -7.00000 95.5000 15 -1 -7.00000 95.5000 TC 15 8 231
1996190S07096 1997 50 SI WA LINDSAY 1996-07-08 09:00:00 TS -7.24004 95.2001 main 740 740 P___________P_ SH011997 -7.24004 95.2001 15 -1 -7.24004 95.2001 TC 15 8 230
1996190S07096 1997 50 SI WA LINDSAY 1996-07-08 12:00:00 TS -7.50000 94.9000 main 786 786 O___________O_ jtwc_sh SH011997 -7.50000 94.9000 15 -1 -7.50000 94.9000 TC 15 8 227
1996190S07096 1997 50 SI WA LINDSAY 1996-07-08 15:00:00 TS -7.79248 94.6000 main 833 833 P___________P_ SH011997 -7.79248 94.6000 17 -1 -7.79248 94.6000 TC 17 8 225
1996190S07096 1997 50 SI WA LINDSAY 1996-07-08 18:00:00 TS -8.10000 94.3000 main 879 879 O___________O_ jtwc_sh SH011997 -8.10000 94.3000 20 -1 -8.10000 94.3000 TC 20 8 225
1996190S07096 1997 50 SI WA LINDSAY 1996-07-08 21:00:00 TS -8.39248 93.9999 main 926 926 P___________P_ SH011997 -8.39248 93.9999 22 -1 -8.39248 93.9999 TC 22 8 225
1996190S07096 1997 50 SI WA LINDSAY 1996-07-09 00:00:00 TS -8.70000 93.7000 main 973 973 O___________O_ jtwc_sh SH011997 -8.70000 93.7000 25 -1 -8.70000 93.7000 TC 25 9 222
1996190S07096 1997 50 SI WA LINDSAY 1996-07-09 03:00:00 TS -9.05749 93.3925 main 1028 1028 P___________P_ SH011997 -9.05749 93.3925 25 -1 -9.05749 93.3925 TC 25 9 220
1996190S07096 1997 50 SI WA LINDSAY 1996-07-09 06:00:00 TS -9.40000 93.1000 main 1075 1075 O___________O_ jtwc_sh SH011997 -9.40000 93.1000 25 -1 -9.40000 93.1000 TC 25 8 222
1996190S07096 1997 50 SI WA LINDSAY 1996-07-09 09:00:00 TS -9.67249 92.8275 main 1122 1122 P___________P_ SH011997 -9.67249 92.8275 25 -1 -9.67249 92.8275 TC 25 6 224
1996190S07096 1997 50 SI WA LINDSAY 1996-07-09 10:00:00 TS -9.70186 92.8070 20 1004 bom main 1122 1122 P_____O_____P_ SH011997 -9.75209 92.7454 25 -1 -9.30000 93.3000 20 20 1004 1.00000 161 3 5 -9.75209 92.7454 TC 25 5 217
1996190S07096 1997 50 SI WA LINDSAY 1996-07-09 12:00:00 TS -9.86000 92.6800 20 1004 bom main 1146 1146 O_____O_____O_ jtwc_sh SH011997 -9.90000 92.6000 25 -1 -9.70000 93.0000 20 20 1004 1.00000 161 3 5 -9.90000 92.6000 TC 25 6 216
1996190S07096 1997 50 SI WA LINDSAY 1996-07-09 15:00:00 TS -10.0782 92.5291 25 1002 bom main 1177 1177 P_____O_____P_ SH011997 -10.1075 92.4275 25 -1 -10.0000 92.8000 20 25 1002 1.50000 161 3 5 -10.1075 92.4275 TC 25 5 212
1996190S07096 1997 50 SI WA LINDSAY 1996-07-09 18:00:00 TS -10.3000 92.4000 25 1002 bom main 1202 1202 O_____O_____O_ jtwc_sh SH011997 -10.3000 92.3000 25 -1 -10.3000 92.6000 20 25 1002 1.50000 172 3 5 -10.3000 92.3000 TC 25 5 205
1996190S07096 1997 50 SI WA LINDSAY 1996-07-09 21:00:00 TS -10.5667 92.2950 25 1000 bom main 1235 1235 P_____O_____P_ SH011997 -10.5000 92.1925 25 -1 -10.7000 92.5000 20 25 1000 2.00000 172 3 5 -10.5000 92.1925 TC 25 6 200
1996190S07096 1997 50 SI WA LINDSAY 1996-07-10 00:00:00 TS -10.8333 92.2000 25 1000 bom main 1260 1260 O_____O_____O_ jtwc_sh SH011997 -10.7000 92.1000 25 -1 -11.1000 92.4000 20 25 1000 2.00000 172 3 5 -10.7000 92.1000 TC 25 5 202
1996190S07096 1997 50 SI WA LINDSAY 1996-07-10 03:00:00 TS -11.0667 92.0900 30 998 bom main 1293 1293 P_____O_____P_ SH011997 -10.9000 91.9850 27 -1 -11.4000 92.3000 20 30 998 2.50000 188 3 5 -10.9000 91.9850 TC 27 5 203
1996190S07096 1997 50 SI WA LINDSAY 1996-07-10 06:00:00 TS -11.3000 92.0000 30 998 bom main 1318 1318 O_____O_____O_ jtwc_sh SH011997 -11.1000 91.9000 30 -1 -11.7000 92.2000 20 30 998 2.50000 188 3 5 -11.1000 91.9000 TC 30 5 197
1996190S07096 1997 50 SI WA LINDSAY 1996-07-10 09:00:00 TS -11.5383 91.9467 35 995 bom main 1342 1342 P_____O_____P_ SH011997 -11.3075 91.8700 30 -1 -12.0000 92.1000 30 35 995 3.00000 188 3 5 -11.3075 91.8700 TC 30 4 189
1996190S07096 1997 50 SI WA LINDSAY 1996-07-10 12:00:00 TS -11.7333 91.9333 40 990 bom main 1361 1361 O_____O_____O_ jtwc_sh SH011997 -11.5000 91.9000 30 -1 -12.2000 92.0000 30 40 990 3.00000 188 3 5 -11.5000 91.9000 TC 30 3 172
1996190S07096 1997 50 SI WA LINDSAY 1996-07-10 15:00:00 TS -11.8617 91.9850 40 990 bom main 1373 1367 P_____O_____P_ SH011997 -11.6425 91.9775 32 -1 -12.3000 92.0000 30 40 990 3.00000 188 3 5 -11.6425 91.9775 TC 32 3 150
1996190S07096 1997 50 SI WA LINDSAY 1996-07-10 18:00:00 TS -11.9667 92.0667 40 990 bom main 1376 1376 O_____O_____O_ jtwc_sh SH011997 -11.8000 92.1000 35 0 -12.3000 92.0000 30 40 990 3.00000 188 3 5 -11.8000 92.1000 TC 35 3 147
1996190S07096 1997 50 SI WA LINDSAY 1996-07-10 21:00:00 TS -12.1283 92.1617 40 990 bom main 1379 1379 P_____O_____P_ SH011997 -12.0425 92.2425 35 0 -12.3000 92.0000 30 40 990 3.00000 188 3 5 -12.0425 92.2425 TC 35 4 150
1996190S07096 1997 50 SI WA LINDSAY 1996-07-11 00:00:00 TS -12.3000 92.2667 40 990 bom main 1392 1392 O_____O_____O_ jtwc_sh SH011997 -12.3000 92.4000 35 0 -12.3000 92.0000 30 40 990 3.00000 188 3 5 -12.3000 92.4000 TC 35 4 144
1996190S07096 1997 50 SI WA LINDSAY 1996-07-11 03:00:00 TS -12.4433 92.3950 40 992 bom main 1396 1396 P_____O_____P_ SH011997 -12.5150 92.5425 32 -1 -12.3000 92.1000 30 40 992 3.00000 188 3 5 -12.5150 92.5425 TC 32 4 139
1996190S07096 1997 50 SI WA LINDSAY 1996-07-11 06:00:00 TS -12.6000 92.5333 35 994 bom main 1410 1404 O_____O_____O_ jtwc_sh SH011997 -12.7000 92.7000 30 -1 -12.4000 92.2000 30 35 994 3.00000 188 3 5 -12.7000 92.7000 TC 30 4 131
1996190S07096 1997 50 SI WA LINDSAY 1996-07-11 09:00:00 TS -12.7050 92.7000 30 996 bom main 1409 1403 P_____O_____P_ SH011997 -12.8575 92.9000 30 -1 -12.4000 92.3000 20 30 996 2.50000 188 3 5 -12.8575 92.9000 TC 30 4 126
1996190S07096 1997 50 SI WA LINDSAY 1996-07-11 12:00:00 TS -12.8333 92.8667 30 998 bom main 1408 1408 O_____O_____O_ jtwc_sh SH011997 -13.0000 93.1000 30 -1 -12.5000 92.4000 20 30 998 2.50000 188 3 5 -13.0000 93.1000 TC 30 4 127
1996190S07096 1997 50 SI WA LINDSAY 1996-07-11 15:00:00 TS -12.9333 93.0050 30 998 bom main 1413 1413 P_____O_____P_ SH011997 -13.1500 93.2575 30 -1 -12.5000 92.5000 20 30 998 2.50000 188 3 5 -13.1500 93.2575 TC 30 4 132
1996190S07096 1997 50 SI WA LINDSAY 1996-07-11 18:00:00 TS -13.0667 93.1333 30 998 bom main 1428 1423 O_____O_____O_ jtwc_sh SH011997 -13.3000 93.4000 30 -1 -12.6000 92.6000 20 30 998 2.50000 161 3 5 -13.3000 93.4000 TC 30 4 136
1996190S07096 1997 50 SI WA LINDSAY 1996-07-11 21:00:00 TS -13.2050 93.2717 30 998 bom main 1428 1428 P_____O_____P_ SH011997 -13.4575 93.5575 30 -1 -12.7000 92.7000 20 30 998 2.50000 161 3 5 -13.4575 93.5575 TC 30 4 136
1996190S07096 1997 50 SI WA LINDSAY 1996-07-12 00:00:00 TS -13.3667 93.4333 30 998 bom main 1437 1429 O_____O_____O_ jtwc_sh SH011997 -13.6000 93.7000 30 -1 -12.9000 92.9000 20 30 998 2.50000 134 3 5 -13.6000 93.7000 TC 30 5 136
1996190S07096 1997 50 SI WA LINDSAY 1996-07-12 03:00:00 TS -13.5333 93.6000 30 998 bom main 1430 1430 P_____O_____P_ SH011997 -13.7000 93.8001 27 -1 -13.2000 93.2000 20 30 998 2.50000 134 3 5 -13.7000 93.8001 TC 27 5 136
1996190S07096 1997 50 SI WA LINDSAY 1996-07-12 06:00:00 TS -13.7000 93.7667 30 998 bom main 1432 1432 O_____O_____O_ jtwc_sh SH011997 -13.8000 93.9000 25 -1 -13.5000 93.5000 20 30 998 2.50000 107 3 5 -13.8000 93.9000 TC 25 5 135
1996190S07096 1997 50 SI WA LINDSAY 1996-07-12 09:00:00 TS -13.8950 93.9667 30 998 bom main 1435 1435 P_____O_____P_ SH011997 -13.9425 94.0500 25 -1 -13.8000 93.8000 20 30 998 2.50000 107 3 5 -13.9425 94.0500 TC 25 6 136
1996190S07096 1997 50 SI WA LINDSAY 1996-07-12 12:00:00 TS -14.1000 94.1667 30 998 bom main 1437 1437 O_____O_____O_ jtwc_sh SH011997 -14.1000 94.2000 25 -1 -14.1000 94.1000 20 30 998 2.50000 107 3 5 -14.1000 94.2000 TC 25 5 138
1996190S07096 1997 50 SI WA LINDSAY 1996-07-12 15:00:00 TS -14.2850 94.3284 30 998 bom main 1447 1439 P_____O_____P_ SH011997 -14.2275 94.2926 25 -1 -14.4000 94.4000 20 30 998 2.50000 80 3 5 -14.2275 94.2926 TC 25 5 141
1996190S07096 1997 50 SI WA LINDSAY 1996-07-12 18:00:00 TS -14.4818 94.4818 30 998 bom main 1449 1448 O_____O_____O_ jtwc_sh SH011997 -14.4000 94.4000 25 -1 -14.7000 94.7000 20 30 998 2.50000 80 3 5 -14.4000 94.4000 TC 25 6 145
1996190S07096 1997 50 SI WA LINDSAY 1996-07-12 21:00:00 TS -14.7420 94.6620 30 998 bom main 1448 1448 P_____O_____P_ SH011997 -14.6775 94.5775 25 -1 -15.0000 95.0000 20 30 998 2.50000 80 3 5 -14.6775 94.5775 TC 25 7 146
1996190S07096 1997 50 SI WA LINDSAY 1996-07-13 00:00:00 TS -15.0429 94.8714 25 1000 bom main 1451 1451 O_____O_____O_ jtwc_sh SH011997 -15.0000 94.8000 25 -1 -15.3000 95.3000 20 25 1000 2.00000 80 3 5 -15.0000 94.8000 TC 25 7 147
1996190S07096 1997 50 SI WA LINDSAY 1996-07-13 03:00:00 TS -15.3076 95.0449 main 1464 1454 P___________P_ SH011997 -15.3076 95.0449 25 -1 -15.3076 95.0449 TC 25 7 143
1996190S07096 1997 50 SI WA LINDSAY 1996-07-13 06:00:00 TS -15.6000 95.3000 main 1461 O___________O_ jtwc_sh SH011997 -15.6000 95.3000 25 -1 -15.6000 95.3000 TC 25 8 140

IBTrACS Databaseについて

本データベースは、米国NOAAが公開する1842年以降の世界の熱帯低気圧のベストトラックデータアーカイブInternational Best Track Archive for Climate Stewardship (IBTrACS)を、ウェブで閲覧しやすい形式に変換したものです。

最終更新日:2021-11-26